Time;durP1;ratioP1;P1;durP2;ratioP2;P2;SDS_P1;SDS_P2;PMS_P1;PMS_P2;Temp;Humidity;BMP_temperature;BMP_pressure;BME280_temperature;BME280_humidity;BME280_pressure;Samples;Min_cycle;Max_cycle;Signal;HPM_P1;HPM_P2
2022/02/22 00:01:38;;;;;;;36.53;7.97;;;;;;;;;;5071092;28;20505;-57
2022/02/22 00:04:04;;;;;;;29.10;6.88;;;;;;;;;;5071114;28;20077;-52
2022/02/22 00:06:31;;;;;;;25.38;7.53;;;;;;;;;;5087790;28;20127;-53
2022/02/22 00:08:57;;;;;;;23.42;6.45;;;;;;;;;;5091489;28;20579;-56
2022/02/22 00:11:23;;;;;;;26.05;9.02;;;;;;;;;;5091446;28;20162;-53
2022/02/22 00:13:49;;;;;;;24.92;5.95;;;;;;;;;;5090692;28;20024;-55
2022/02/22 00:16:15;;;;;;;27.73;7.22;;;;;;;;;;5091109;28;20059;-56
2022/02/22 00:18:41;;;;;;;33.92;7.25;;;;;;;;;;5090935;28;20055;-54
2022/02/22 00:21:08;;;;;;;25.45;6.65;;;;;;;;;;5089599;28;20107;-55
2022/02/22 00:23:34;;;;;;;20.77;5.93;;;;;;;;;;5090593;28;20555;-56
2022/02/22 00:26:00;;;;;;;32.33;5.50;;;;;;;;;;5090815;28;20093;-53
2022/02/22 00:28:26;;;;;;;27.30;6.10;;;;;;;;;;5091006;28;20039;-55
2022/02/22 00:30:52;;;;;;;21.98;6.10;;;;;;;;;;5090627;28;20042;-57
2022/02/22 00:33:18;;;;;;;29.48;6.93;;;;;;;;;;5090916;28;20048;-56
2022/02/22 00:35:44;;;;;;;26.55;7.97;;;;;;;;;;5092254;28;20020;-57
2022/02/22 00:38:10;;;;;;;26.83;6.43;;;;;;;;;;5072188;28;20021;-55
2022/02/22 00:40:37;;;;;;;19.67;5.18;;;;;;;;;;5071764;28;20025;-54
2022/02/22 00:43:03;;;;;;;24.50;7.03;;;;;;;;;;5072934;28;20032;-53
2022/02/22 00:45:29;;;;;;;28.65;7.70;;;;;;;;;;5073617;28;20384;-58
2022/02/22 00:47:55;;;;;;;31.98;8.10;;;;;;;;;;5073889;28;20503;-55
2022/02/22 00:50:21;;;;;;;27.60;8.02;;;;;;;;;;5073622;28;20028;-53
2022/02/22 00:52:47;;;;;;;26.90;5.63;;;;;;;;;;5073694;28;20388;-55
2022/02/22 00:55:13;;;;;;;28.85;6.60;;;;;;;;;;5074096;28;20103;-57
2022/02/22 00:57:41;;;;;;;20.80;5.68;;;;;;;;;;5074882;28;20472;-54
2022/02/22 01:00:07;;;;;;;;;;;;;;;;;;5073717;28;20025;-53
2022/02/22 01:02:33;;;;;;;28.00;7.03;;;;;;;;;;5073194;28;19904;-56
2022/02/22 01:04:59;;;;;;;28.85;7.15;;;;;;;;;;5055665;28;20407;-52
2022/02/22 01:07:25;;;;;;;25.13;6.47;;;;;;;;;;5073258;28;20074;-54
2022/02/22 01:09:51;;;;;;;22.45;6.75;;;;;;;;;;5055056;28;20020;-54
2022/02/22 01:12:17;;;;;;;25.33;7.80;;;;;;;;;;5073237;28;20025;-53
2022/02/22 01:14:43;;;;;;;25.83;7.90;;;;;;;;;;5072975;28;20036;-56
2022/02/22 01:17:10;;;;;;;24.55;7.03;;;;;;;;;;5072905;28;20028;-55
2022/02/22 01:19:36;;;;;;;29.00;7.03;;;;;;;;;;5072930;28;20370;-56
2022/02/22 01:22:02;;;;;;;30.65;8.40;;;;;;;;;;5073128;28;20021;-52
2022/02/22 01:24:28;;;;;;;31.25;7.15;;;;;;;;;;5073050;28;20103;-53
2022/02/22 01:26:54;;;;;;;27.60;7.55;;;;;;;;;;5073204;28;20028;-53
2022/02/22 01:29:20;;;;;;;28.58;7.00;;;;;;;;;;5072946;28;20031;-55
2022/02/22 01:31:47;;;;;;;31.33;7.40;;;;;;;;;;5054705;28;20072;-52
2022/02/22 01:34:13;;;;;;;26.63;7.13;;;;;;;;;;5072550;28;20020;-52
2022/02/22 01:36:39;;;;;;;32.67;7.30;;;;;;;;;;5072604;28;20111;-55
2022/02/22 01:39:05;;;;;;;26.58;7.07;;;;;;;;;;5072547;28;20063;-56
2022/02/22 01:41:32;;;;;;;30.13;8.90;;;;;;;;;;5072592;28;20024;-57
2022/02/22 01:43:58;;;;;;;33.65;8.25;;;;;;;;;;5072733;28;20020;-54
2022/02/22 01:46:25;;;;;;;28.17;6.30;;;;;;;;;;5072619;28;20435;-50
2022/02/22 01:48:51;;;;;;;25.42;6.72;;;;;;;;;;5072409;28;20033;-54
2022/02/22 01:51:17;;;;;;;35.60;7.78;;;;;;;;;;5072468;28;20025;-54
2022/02/22 01:53:43;;;;;;;23.58;6.47;;;;;;;;;;5072486;28;20032;-52
2022/02/22 01:56:09;;;;;;;30.30;7.65;;;;;;;;;;5072361;28;20025;-50
2022/02/22 01:58:36;;;;;;;23.55;6.53;;;;;;;;;;5072068;28;20107;-53
2022/02/22 02:01:02;;;;;;;35.70;6.45;;;;;;;;;;5071963;28;20020;-57
2022/02/22 02:03:28;;;;;;;22.50;5.75;;;;;;;;;;5072008;28;20048;-53
2022/02/22 02:05:55;;;;;;;25.92;6.57;;;;;;;;;;5072321;28;20058;-53
2022/02/22 02:08:21;;;;;;;28.35;6.72;;;;;;;;;;5072093;28;20510;-56
2022/02/22 02:10:47;;;;;;;27.70;6.15;;;;;;;;;;5071879;28;20029;-53
2022/02/22 02:13:13;;;;;;;27.13;7.78;;;;;;;;;;5072249;28;20025;-56
2022/02/22 02:15:39;;;;;;;23.15;5.90;;;;;;;;;;5071853;28;20551;-53
2022/02/22 02:18:06;;;;;;;29.48;6.00;;;;;;;;;;5072030;28;20103;-57
2022/02/22 02:20:32;;;;;;;23.00;7.40;;;;;;;;;;5071784;28;20020;-55
2022/02/22 02:22:58;;;;;;;25.17;5.65;;;;;;;;;;5072063;28;20082;-55
2022/02/22 02:25:24;;;;;;;25.60;7.22;;;;;;;;;;5071789;28;20496;-56
2022/02/22 02:27:50;;;;;;;29.15;7.18;;;;;;;;;;5054099;28;20025;-54
2022/02/22 02:30:16;;;;;;;21.75;6.30;;;;;;;;;;5071686;28;20488;-53
2022/02/22 02:32:42;;;;;;;22.35;6.50;;;;;;;;;;5071802;28;20074;-57
2022/02/22 02:35:09;;;;;;;20.95;7.28;;;;;;;;;;5071767;28;20032;-55
2022/02/22 02:37:35;;;;;;;20.73;5.68;;;;;;;;;;5071746;28;20032;-55
2022/02/22 02:40:03;;;;;;;30.25;7.88;;;;;;;;;;5053792;28;20027;-56
2022/02/22 02:42:29;;;;;;;28.40;7.97;;;;;;;;;;5071906;28;20020;-54
2022/02/22 02:44:55;;;;;;;23.90;10.40;;;;;;;;;;5073854;28;20089;-53
2022/02/22 02:47:21;;;;;;;26.13;10.13;;;;;;;;;;5075673;28;20024;-52
2022/02/22 02:49:47;;;;;;;26.92;8.82;;;;;;;;;;5075808;28;20158;-52
2022/02/22 02:52:13;;;;;;;26.48;9.45;;;;;;;;;;5075906;28;20074;-52
2022/02/22 02:54:39;;;;;;;27.02;9.00;;;;;;;;;;5075536;28;20025;-52
2022/02/22 02:57:05;;;;;;;23.42;9.00;;;;;;;;;;5075794;28;20032;-54
2022/02/22 02:59:31;;;;;;;32.88;9.57;;;;;;;;;;5075617;28;20499;-56
2022/02/22 03:01:57;;;;;;;39.78;10.75;;;;;;;;;;5075523;28;20020;-54
2022/02/22 03:04:23;;;;;;;26.60;9.30;;;;;;;;;;5075495;28;20534;-51
2022/02/22 03:06:50;;;;;;;21.52;7.47;;;;;;;;;;5075643;28;20029;-56
2022/02/22 03:09:16;;;;;;;23.20;10.02;;;;;;;;;;5075425;28;20028;-54
2022/02/22 03:11:41;;;;;;;26.38;11.02;;;5.40;99.90;;;;;;5075323;28;20476;-51
2022/02/22 03:14:08;;;;;;;23.33;9.07;;;;;;;;;;5075176;28;20029;-56
2022/02/22 03:16:34;;;;;;;21.30;8.18;;;;;;;;;;5075268;28;20039;-56
2022/02/22 03:19:03;;;;;;;21.05;9.02;;;;;;;;;;5075275;28;20020;-53
2022/02/22 03:21:30;;;;;;;24.48;8.18;;;;;;;;;;5075192;28;20377;-56
2022/02/22 03:23:56;;;;;;;21.92;9.38;;;;;;;;;;5057297;28;20021;-57
2022/02/22 03:26:22;;;;;;;18.38;8.20;;;;;;;;;;5075492;28;20105;-56
2022/02/22 03:28:48;;;;;;;28.85;8.75;;;;;;;;;;5074878;28;20028;-51
2022/02/22 03:31:14;;;;;;;29.80;9.77;;;;;;;;;;5074722;28;20097;-54
2022/02/22 03:33:41;;;;;;;32.00;10.02;;;;;;;;;;5075113;28;20052;-53
2022/02/22 03:36:06;;;;;;;30.85;8.95;;;4.20;99.90;;;;;;5075100;28;20070;-53
2022/02/22 03:38:32;;;;;;;29.35;10.02;;;4.30;99.90;;;;;;5075101;28;20021;-55
2022/02/22 03:40:58;;;;;;;30.25;9.65;;;4.30;99.90;;;;;;5074912;28;20128;-49
2022/02/22 03:43:24;;;;;;;26.38;9.10;;;4.40;99.90;;;;;;5074794;28;20054;-52
2022/02/22 03:45:49;;;;;;;35.47;9.23;;;4.40;99.90;;;;;;5074963;28;20024;-52
2022/02/22 03:48:15;;;;;;;37.38;9.05;;;4.40;99.90;;;;;;5074908;28;20384;-55
2022/02/22 03:50:41;;;;;;;27.55;7.75;;;4.40;99.90;;;;;;5056518;28;20068;-52
2022/02/22 03:53:06;;;;;;;26.80;8.48;;;4.50;99.90;;;;;;5074932;28;20040;-57
2022/02/22 03:55:32;;;;;;;29.90;8.70;;;4.50;99.90;;;;;;5056633;28;20024;-51
2022/02/22 03:57:57;;;;;;;33.13;9.70;;;4.50;99.90;;;;;;5074568;28;20047;-51
2022/02/22 04:00:25;;;;;;;32.35;8.40;;;4.40;99.90;;;;;;5074241;28;20017;-55
2022/02/22 04:02:51;;;;;;;28.70;8.07;;;4.50;99.90;;;;;;5074562;28;20036;-55
2022/02/22 04:05:20;;;;;;;28.88;8.98;;;4.50;99.90;;;;;;5074259;28;20032;-55
2022/02/22 04:07:46;;;;;;;25.33;8.15;;;4.50;99.90;;;;;;5074411;28;20024;-57
2022/02/22 04:10:12;;;;;;;27.95;8.00;;;4.60;99.90;;;;;;5074404;28;20357;-55
2022/02/22 04:12:38;;;;;;;26.45;7.63;;;4.60;99.90;;;;;;5074266;28;20017;-55
2022/02/22 04:15:05;;;;;;;29.75;10.48;;;4.60;99.90;;;;;;5074395;28;20028;-53
2022/02/22 04:17:31;;;;;;;32.03;9.02;;;4.50;99.90;;;;;;5056341;28;20028;-54
2022/02/22 04:19:58;;;;;;;36.90;8.35;;;4.40;99.90;;;;;;5074158;28;20482;-55
2022/02/22 04:22:23;;;;;;;27.88;9.23;;;4.40;99.90;;;;;;5074629;28;20028;-51
2022/02/22 04:24:49;;;;;;;37.13;9.90;;;4.40;99.90;;;;;;5074577;28;20059;-51
2022/02/22 04:27:15;;;;;;;36.08;8.32;;;4.40;99.90;;;;;;5074307;28;20469;-56
2022/02/22 04:29:41;;;;;;;31.73;8.50;;;4.30;99.90;;;;;;5074080;28;20529;-52
2022/02/22 04:32:07;;;;;;;23.35;8.75;;;4.30;99.90;;;;;;5073948;28;20395;-56
2022/02/22 04:34:36;;;;;;;27.38;7.65;;;4.30;99.90;;;;;;5073975;28;20025;-55
2022/02/22 04:37:02;;;;;;;26.17;8.70;;;4.30;99.90;;;;;;5073811;28;20477;-53
2022/02/22 04:39:28;;;;;;;29.92;8.90;;;4.30;99.90;;;;;;5073741;28;20408;-51
2022/02/22 04:41:53;;;;;;;27.60;7.68;;;4.30;99.90;;;;;;5073903;28;20021;-58
2022/02/22 04:44:20;;;;;;;36.72;8.27;;;4.20;99.90;;;;;;5073995;28;20052;-53
2022/02/22 04:46:46;;;;;;;30.90;8.57;;;4.20;99.90;;;;;;5074083;28;20480;-52
2022/02/22 04:49:12;;;;;;;36.63;8.85;;;4.10;99.90;;;;;;5073949;28;20077;-57
2022/02/22 04:51:40;;;;;;;29.25;7.72;;;4.10;99.90;;;;;;5073942;28;20078;-54
2022/02/22 04:54:06;;;;;;;30.88;7.43;;;4.10;99.90;;;;;;5081782;28;20451;-55
2022/02/22 04:56:32;;;;;;;30.95;8.13;;;4.00;99.90;;;;;;5090801;28;20055;-52
2022/02/22 04:58:58;;;;;;;30.63;7.13;;;4.00;99.90;;;;;;5069828;28;20016;-54
2022/02/22 05:01:24;;;;;;;27.70;6.70;;;4.00;99.90;;;;;;5076706;28;20016;-52
2022/02/22 05:03:50;;;;;;;22.58;7.55;;;3.90;99.90;;;;;;5093919;28;20049;-62
2022/02/22 05:06:15;;;;;;;38.65;8.57;;;4.00;99.90;;;;;;5093470;28;20065;-58
2022/02/22 05:08:41;;;;;;;31.92;9.05;;;3.90;99.90;;;;;;5075094;28;20480;-53
2022/02/22 05:11:07;;;;;;;27.23;7.43;;;4.00;99.90;;;;;;5074909;28;20515;-53
2022/02/22 05:13:35;;;;;;;26.10;7.25;;;3.90;99.90;;;;;;5093662;28;20404;-54
2022/02/22 05:16:01;;;;;;;33.97;8.10;;;3.90;99.90;;;;;;5093323;28;20077;-58
2022/02/22 05:18:28;;;;;;;33.55;7.35;;;3.90;99.90;;;;;;5093007;28;20099;-58
2022/02/22 05:20:54;;;;;;;34.38;6.70;;;3.90;99.90;;;;;;5093167;28;20082;-54
2022/02/22 05:23:35;;;;;;;39.17;10.05;;;3.90;99.90;;;;;;5113046;28;20027;-57
2022/02/22 05:26:05;;;;;;;27.40;7.57;;;3.90;99.90;;;;;;5095008;28;20376;-57
2022/02/22 05:28:30;;;;;;;31.15;8.48;;;3.90;99.90;;;;;;5096712;28;20024;-57
2022/02/22 05:30:57;;;;;;;25.05;8.27;;;;;;;;;;5092295;28;20093;-55
2022/02/22 05:33:23;;;;;;;30.65;8.15;;;;;;;;;;5074532;28;20124;-53
2022/02/22 05:35:51;;;;;;;29.13;6.93;;;;;;;;;;5092622;28;20063;-57
2022/02/22 05:38:17;;;;;;;30.40;8.38;;;;;;;;;;5092562;28;20028;-56
2022/02/22 05:40:43;;;;;;;32.90;7.90;;;;;;;;;;5074153;28;20040;-57
2022/02/22 05:43:09;;;;;;;32.83;8.70;;;;;;;;;;5092559;28;20020;-58
2022/02/22 05:45:36;;;;;;;36.17;9.05;;;;;;;;;;5092439;28;20051;-58
2022/02/22 05:48:02;;;;;;;25.67;6.90;;;;;;;;;;5092420;28;20024;-58
2022/02/22 05:50:28;;;;;;;25.75;7.68;;;;;;;;;;5074109;28;20396;-56
2022/02/22 05:52:57;;;;;;;31.55;8.95;;;;;;;;;;5073917;28;20058;-55
2022/02/22 05:55:23;;;;;;;29.45;8.07;;;;;;;;;;5092329;28;20095;-53
2022/02/22 05:57:49;;;;;;;30.50;8.75;;;;;;;;;;5091167;28;20028;-57
2022/02/22 06:00:16;;;;;;;28.17;7.70;;;;;;;;;;5090465;28;20043;-59
2022/02/22 06:02:42;;;;;;;28.70;8.77;;;;;;;;;;5091264;28;20100;-57
2022/02/22 06:05:08;;;;;;;23.17;7.20;;;;;;;;;;5090553;28;20024;-55
2022/02/22 06:07:34;;;;;;;33.40;8.38;;;;;;;;;;5090694;28;20036;-57
2022/02/22 06:10:00;;;;;;;26.48;8.63;;;;;;;;;;5090574;28;20016;-56
2022/02/22 06:12:26;;;;;;;28.63;7.65;;;;;;;;;;5090754;28;20241;-56
2022/02/22 06:14:53;;;;;;;26.67;7.25;;;;;;;;;;5088304;28;20032;-56
2022/02/22 06:17:21;;;;;;;28.33;7.72;;;;;;;;;;5089529;28;20024;-58
2022/02/22 06:19:47;;;;;;;30.48;8.48;;;;;;;;;;5072854;28;20131;-57
2022/02/22 06:22:13;;;;;;;29.25;7.68;;;;;;;;;;5091871;28;20073;-56
2022/02/22 06:24:39;;;;;;;30.48;8.43;;;;;;;;;;5092006;28;20615;-53
2022/02/22 06:27:05;;;;;;;32.58;8.50;;;;;;;;;;5091686;28;20039;-55
2022/02/22 06:29:31;;;;;;;30.02;7.82;;;;;;;;;;5091613;28;20035;-55
2022/02/22 06:31:57;;;;;;;37.28;9.88;;;;;;;;;;5091106;28;20055;-54
2022/02/22 06:34:23;;;;;;;30.73;9.38;;;;;;;;;;5093165;28;20034;-55
2022/02/22 06:36:49;;;;;;;30.35;7.85;;;;;;;;;;5091432;28;20396;-52
2022/02/22 06:39:15;;;;;;;31.80;7.60;;;;;;;;;;5091730;28;20078;-51
2022/02/22 06:41:41;;;;;;;30.60;7.05;;;;;;;;;;5091539;28;20027;-55
2022/02/22 06:44:07;;;;;;;36.90;8.43;;;;;;;;;;5073933;28;20016;-54
2022/02/22 06:46:34;;;;;;;26.13;7.70;;;;;;;;;;5092096;28;20495;-57
2022/02/22 06:49:00;;;;;;;31.17;8.20;;;;;;;;;;5091328;28;20079;-52
2022/02/22 06:51:26;;;;;;;25.15;6.95;;;;;;;;;;5073598;28;20134;-55
2022/02/22 06:53:52;;;;;;;25.23;7.35;;;;;;;;;;5090920;28;20410;-56
2022/02/22 06:56:18;;;;;;;32.10;7.80;;;;;;;;;;5072655;28;20053;-56
2022/02/22 06:58:44;;;;;;;30.58;7.20;;;;;;;;;;5071030;28;20024;-55
2022/02/22 07:01:10;;;;;;;25.83;8.20;;;;;;;;;;5070777;28;20028;-53
2022/02/22 07:03:36;;;;;;;28.63;8.00;;;;;;;;;;5070913;28;20366;-55
2022/02/22 07:06:02;;;;;;;29.23;7.85;;;;;;;;;;5070608;28;20020;-54
2022/02/22 07:08:28;;;;;;;33.25;8.32;;;;;;;;;;5070907;28;20028;-55
2022/02/22 07:10:54;;;;;;;46.30;9.38;;;;;;;;;;5070571;28;20050;-54
2022/02/22 07:13:20;;;;;;;39.40;8.48;;;;;;;;;;5071096;28;20530;-54
2022/02/22 07:15:46;;;;;;;37.53;8.50;;;;;;;;;;5070900;28;20055;-55
2022/02/22 07:18:13;;;;;;;26.98;7.07;;;;;;;;;;5070917;28;20163;-55
2022/02/22 07:20:39;;;;;;;43.67;8.55;;;;;;;;;;5070679;28;20021;-54
2022/02/22 07:23:05;;;;;;;37.03;9.85;;;;;;;;;;5070708;28;20031;-56
2022/02/22 07:25:31;;;;;;;27.58;6.53;;;;;;;;;;5070808;28;20447;-54
2022/02/22 07:27:59;;;;;;;43.63;6.90;;;;;;;;;;5070782;28;20023;-56
2022/02/22 07:30:25;;;;;;;33.83;8.20;;;;;;;;;;5071534;28;20425;-54
2022/02/22 07:32:55;;;;;;;31.52;7.82;;;;;;;;;;5074162;28;20027;-54
2022/02/22 07:35:21;;;;;;;43.38;9.13;;;;;;;;;;5073783;28;20453;-55
2022/02/22 07:37:47;;;;;;;28.92;6.47;;;;;;;;;;5056122;28;20035;-53
2022/02/22 07:40:15;;;;;;;32.30;7.40;;;;;;;;;;5074312;28;20099;-58
2022/02/22 07:42:41;;;;;;;29.58;6.75;;;;;;;;;;5074150;28;20027;-58
2022/02/22 07:45:08;;;;;;;31.77;7.30;;;;;;;;;;5074040;28;20024;-57
2022/02/22 07:47:34;;;;;;;29.30;9.32;;;;;;;;;;5056199;28;20028;-53
2022/02/22 07:50:00;;;;;;;32.47;9.20;;;;;;;;;;5055866;28;20707;-54
2022/02/22 07:52:27;;;;;;;24.13;7.22;;;;;;;;;;5074772;28;20392;-56
2022/02/22 07:54:53;;;;;;;27.38;9.20;;;;;;;;;;5080529;28;20619;-55
2022/02/22 07:57:19;;;;;;;26.35;7.22;;;;;;;;;;5094575;28;20024;-53
2022/02/22 07:59:45;;;;;;;33.65;8.38;;;;;;;;;;5093977;28;20098;-56
2022/02/22 08:02:11;;;;;;;31.80;7.90;;;;;;;;;;5076051;28;20410;-53
2022/02/22 08:04:40;;;;;;;23.80;8.43;;;;;;;;;;5094028;28;20535;-53
2022/02/22 08:07:06;;;;;;;29.08;7.40;;;;;;;;;;5075993;28;20016;-56
2022/02/22 08:09:32;;;;;;;39.58;8.73;;;;;;;;;;5076043;28;20028;-58
2022/02/22 08:12:01;;;;;;;25.08;8.90;;;;;;;;;;5094236;28;20073;-57
2022/02/22 08:14:29;;;;;;;27.88;6.18;;;;;;;;;;5094054;28;20047;-53
2022/02/22 08:17:00;;;;;;;40.30;9.00;;;;;;;;;;5094243;28;20032;-53
2022/02/22 08:19:26;;;;;;;28.77;7.18;;;;;;;;;;5093964;28;20020;-55
2022/02/22 08:21:52;;;;;;;31.20;8.40;;;;;;;;;;5094255;28;20024;-55
2022/02/22 08:24:18;;;;;;;25.58;5.65;;;;;;;;;;5094279;28;20024;-54
2022/02/22 08:26:44;;;;;;;32.38;7.45;;;;;;;;;;5094222;28;20028;-54
2022/02/22 08:29:10;;;;;;;38.25;8.48;;;;;;;;;;5093632;28;20111;-57
2022/02/22 08:31:36;;;;;;;34.28;6.32;;;;;;;;;;5093181;28;20050;-54
2022/02/22 08:34:02;;;;;;;36.33;8.57;;;;;;;;;;5093038;28;20107;-55
2022/02/22 08:36:29;;;;;;;31.25;7.93;;;;;;;;;;5093444;28;20020;-54
2022/02/22 08:38:55;;;;;;;28.83;6.82;;;;;;;;;;5093970;28;20028;-56
2022/02/22 08:41:21;;;;;;;24.23;8.02;;;;;;;;;;5093065;28;20383;-57
2022/02/22 08:43:47;;;;;;;33.80;6.93;;;;;;;;;;5091584;28;20071;-53
2022/02/22 08:46:13;;;;;;;33.95;8.13;;;;;;;;;;5091797;28;20075;-54
2022/02/22 08:48:39;;;;;;;24.00;7.25;;;;;;;;;;5075229;28;20020;-56
2022/02/22 08:51:05;;;;;;;29.95;6.35;;;;;;;;;;5074577;28;20089;-54
2022/02/22 08:53:30;;;;;;;32.47;7.72;;;3.80;99.90;;;;;;5092068;28;20031;-56
2022/02/22 08:55:58;;;;;;;22.90;6.72;;;;;;;;;;5074837;28;20340;-55
2022/02/22 08:58:24;;;;;;;27.80;6.88;;;;;;;;;;5093349;28;20483;-58
2022/02/22 09:00:51;;;;;;;25.40;7.25;;;;;;;;;;5074702;28;20032;-64
2022/02/22 09:03:17;;;;;;;22.67;5.90;;;;;;;;;;5093407;28;20031;-64
2022/02/22 09:05:43;;;;;;;30.27;7.22;;;;;;;;;;5074597;28;20020;-63
2022/02/22 09:08:09;;;;;;;29.00;7.40;;;;;;;;;;5092939;28;20164;-64
2022/02/22 09:10:34;;;;;;;30.48;6.28;;;5.40;99.90;;;;;;5092720;28;20107;-63
2022/02/22 09:13:00;;;;;;;28.67;7.28;;;6.30;99.90;;;;;;5092942;28;20491;-64
2022/02/22 09:15:28;;;;;;;36.85;9.27;;;6.40;99.90;;;;;;5092244;28;20020;-60
2022/02/22 09:17:54;;;;;;;30.25;5.53;;;6.50;99.90;;;;;;5074131;28;20138;-61
2022/02/22 09:20:23;;;;;;;26.77;6.80;;;6.40;99.90;;;;;;5074030;28;20032;-64
2022/02/22 09:22:49;;;;;;;32.65;6.53;;;;;;;;;;5074199;28;20488;-55
2022/02/22 09:25:16;;;;;;;23.42;6.68;;;;;;;;;;5073962;28;20024;-53
2022/02/22 09:27:43;;;;;;;31.23;6.60;;;;;;;;;;5074186;28;20028;-53
2022/02/22 09:30:09;;;;;;;25.05;5.88;;;;;;;;;;5091490;28;20028;-51
2022/02/22 09:32:35;;;;;;;30.27;6.38;;;;;;;;;;5092547;28;20024;-54
2022/02/22 09:35:01;;;;;;;26.35;6.28;;;;;;;;;;5074006;28;20445;-57
2022/02/22 09:37:28;;;;;;;24.80;6.75;;;;;;;;;;5093088;28;20028;-58
2022/02/22 09:39:54;;;;;;;23.23;5.88;;;;;;;;;;5091892;28;20024;-58
2022/02/22 09:42:20;;;;;;;26.20;6.10;;;;;;;;;;5074111;28;20073;-58
2022/02/22 09:44:46;;;;;;;26.02;6.57;;;;;;;;;;5092184;28;20103;-54
2022/02/22 09:47:12;;;;;;;30.00;8.45;;;;;;;;;;5092064;28;20103;-60
2022/02/22 09:49:38;;;;;;;26.27;6.15;;;;;;;;;;5073526;28;20239;-59
2022/02/22 09:52:05;;;;;;;26.65;7.07;;;;;;;;;;5091667;28;20023;-59
2022/02/22 09:54:33;;;;;;;34.75;7.13;;;;;;;;;;5072197;28;20020;-58
2022/02/22 09:56:59;;;;;;;24.65;6.97;;;;;;;;;;5091694;28;20031;-56
2022/02/22 09:59:25;;;;;;;19.58;6.53;;;;;;;;;;5092098;28;20028;-57
2022/02/22 10:01:52;;;;;;;30.88;7.03;;;;;;;;;;5091733;28;20024;-55
2022/02/22 10:04:18;;;;;;;26.05;6.32;;;;;;;;;;5092001;28;20028;-54
2022/02/22 10:06:44;;;;;;;26.60;6.80;;;;;;;;;;5091941;28;20509;-55
2022/02/22 10:09:10;;;;;;;24.38;7.38;;;;;;;;;;5091958;28;20069;-54
2022/02/22 10:11:50;;;;;;;22.52;7.28;;;;;;;;;;5091745;28;20035;-56
2022/02/22 10:14:25;;;;;;;27.25;6.90;;;;;;;;;;5073757;28;20021;-58
2022/02/22 10:16:51;;;;;;;23.63;6.72;;;;;;;;;;5073583;28;20115;-51
2022/02/22 10:19:18;;;;;;;20.92;5.40;;;;;;;;;;5073317;28;20031;-56
2022/02/22 10:21:56;;;;;;;25.55;6.32;;;;;;;;;;5073603;28;20115;-54
2022/02/22 10:24:23;;;;;;;20.15;6.22;;;;;;;;;;5091619;28;20047;-56
2022/02/22 10:26:49;;;;;;;25.20;6.40;;;;;;;;;;5091470;28;20035;-58
2022/02/22 10:29:19;;;;;;;30.58;7.95;;;;;;;;;;5091678;28;20069;-56
2022/02/22 10:31:45;;;;;;;24.77;7.68;;;;;;;;;;5091560;28;20092;-58
2022/02/22 10:34:11;;;;;;;34.35;7.63;;;;;;;;;;5091536;28;20046;-56
2022/02/22 10:36:39;;;;;;;23.77;7.03;;;;;;;;;;5091446;28;20080;-58
2022/02/22 10:39:06;;;;;;;22.92;6.50;;;;;;;;;;5085667;28;20400;-57
2022/02/22 10:41:39;;;;;;;22.13;6.72;;;;;;;;;;5071179;28;20028;-56
2022/02/22 10:44:06;;;;;;;27.35;7.45;;;;;;;;;;5070954;28;20477;-57
2022/02/22 10:46:35;;;;;;;28.63;8.40;;;;;;;;;;5071144;28;20032;-56
2022/02/22 10:49:05;;;;;;;20.55;6.93;;;6.50;99.90;;;;;;5071316;28;20029;-56
2022/02/22 10:51:41;;;;;;;19.77;6.28;;;7.60;99.90;;;;;;5071217;28;20024;-59
2022/02/22 10:54:08;;;;;;;25.73;7.75;;;7.60;99.90;;;;;;5071036;28;20024;-65
2022/02/22 10:56:35;;;;;;;28.30;7.85;;;7.70;99.90;;;;;;5072985;28;20028;-63
2022/02/22 10:59:04;;;;;;;22.38;7.78;;;7.80;99.90;;;;;;5072932;28;20020;-59
2022/02/22 11:01:30;;;;;;;24.38;6.68;;;7.80;99.90;;;;;;5090792;28;20119;-61
2022/02/22 11:03:57;;;;;;;24.23;7.20;;;7.70;99.90;;;;;;5091199;28;20027;-61
2022/02/22 11:06:23;;;;;;;21.08;6.38;;;7.80;99.90;;;;;;5094485;28;20024;-61
2022/02/22 11:08:51;;;;;;;24.00;7.00;;;7.80;99.90;;;;;;5076294;28;20533;-61
2022/02/22 11:11:32;;;;;;;;;;;7.80;99.90;;;;;;5095476;28;20031;-62
2022/02/22 11:14:17;;;;;;;21.88;6.15;;;7.70;99.90;;;;;;5094552;28;19927;-61
2022/02/22 11:16:47;;;;;;;18.95;6.13;;;7.70;99.90;;;;;;5094904;28;20644;-61
2022/02/22 11:19:21;;;;;;;21.63;6.63;;;7.80;99.90;;;;;;5076897;28;20336;-60
2022/02/22 11:21:49;;;;;;;23.73;7.47;;;7.90;99.90;;;;;;5094487;28;20020;-61
2022/02/22 11:24:18;;;;;;;23.42;6.38;;;8.00;99.90;;;;;;5094525;28;20016;-54
2022/02/22 11:26:44;;;;;;;27.45;5.85;;;7.90;99.90;;;;;;5094580;28;20577;-61
2022/02/22 11:29:10;;;;;;;33.60;8.88;;;7.90;99.90;;;;;;5094670;28;20032;-61
2022/02/22 11:31:36;;;;;;;35.15;7.00;;;7.90;99.90;;;;;;5093903;28;20067;-62
2022/02/22 11:34:03;;;;;;;20.02;6.10;;;7.90;99.90;;;;;;5094063;28;20384;-65
2022/02/22 11:36:41;;;;;;;25.23;6.57;;;7.90;99.90;;;;;;5076076;28;20021;-65
2022/02/22 11:39:20;;;;;;;23.38;6.63;;;7.90;99.90;;;;;;5093934;28;20081;-66
2022/02/22 11:41:45;;;;;;;26.50;8.85;;;7.90;99.90;;;;;;5094274;28;20020;-61
2022/02/22 11:44:16;;;;;;;19.00;5.80;;;7.80;99.90;;;;;;5075796;28;20394;-64
2022/02/22 11:46:47;;;;;;;28.23;8.57;;;7.90;99.90;;;;;;5094121;28;20387;-62
2022/02/22 11:49:25;;;;;;;21.83;5.82;;;7.90;99.90;;;;;;5094156;28;20050;-61
2022/02/22 11:51:53;;;;;;;25.10;8.38;;;7.90;99.90;;;;;;5094007;28;20326;-58
2022/02/22 11:54:18;;;;;;;23.33;5.50;;;7.90;99.90;;;;;;5075874;28;20035;-64
2022/02/22 11:56:45;;;;;;;21.15;6.63;;;8.10;99.90;;;;;;5093991;28;20032;-63
2022/02/22 11:59:18;;;;;;;20.13;7.35;;;8.00;99.90;;;;;;5093874;28;20051;-61
2022/02/22 12:01:46;;;;;;;32.97;7.85;;;8.10;99.90;;;;;;5093868;28;20495;-63
2022/02/22 12:04:20;;;;;;;26.10;6.38;;;8.20;99.90;;;;;;5093844;28;20035;-63
2022/02/22 12:06:52;;;;;;;23.73;6.82;;;8.20;99.90;;;;;;5093920;28;20368;-64
2022/02/22 12:09:18;;;;;;;21.50;6.97;;;8.10;99.90;;;;;;5093602;28;20024;-63
2022/02/22 12:11:44;;;;;;;20.05;6.30;;;8.10;99.90;;;;;;5094094;28;20028;-62
2022/02/22 12:14:14;;;;;;;22.23;6.13;;;8.10;99.90;;;;;;5093893;28;20597;-62
2022/02/22 12:16:44;;;;;;;23.42;6.78;;;8.10;99.90;;;;;;5092220;28;20379;-62
2022/02/22 12:19:13;;;;;;;30.48;8.38;;;8.10;99.90;;;;;;5093355;28;20062;-63
2022/02/22 12:21:39;;;;;;;26.50;7.78;;;8.00;99.90;;;;;;5093349;28;20019;-64
2022/02/22 12:24:11;;;;;;;33.85;9.18;;;7.90;99.90;;;;;;5093351;28;20422;-61
2022/02/22 12:26:38;;;;;;;21.50;6.80;;;;;;;;;;5094646;28;20024;-62
2022/02/22 12:29:07;;;;;;;22.20;8.70;;;;;;;;;;5075281;28;20111;-63
2022/02/22 12:31:37;;;;;;;25.73;8.93;;;;;;;;;;5093407;28;20040;-64
2022/02/22 12:34:16;;;;;;;27.02;7.78;;;;;;;;;;5093784;28;20016;-62
2022/02/22 12:36:44;;;;;;;28.55;8.23;;;7.80;99.90;;;;;;5092873;28;20024;-63
2022/02/22 12:39:11;;;;;;;24.38;7.38;;;;;;;;;;5093142;28;20016;-62
2022/02/22 12:41:39;;;;;;;35.13;8.73;;;;;;;;;;5092821;28;20048;-61
2022/02/22 12:44:12;;;;;;;26.52;7.13;;;;;;;;;;5094231;28;20047;-63
2022/02/22 12:46:39;;;;;;;27.98;8.48;;;;;;;;;;5113167;28;20421;-63
2022/02/22 12:49:09;;;;;;;29.13;8.95;;;;;;;;;;5113537;28;20027;-62
2022/02/22 12:51:35;;;;;;;26.92;8.38;;;;;;;;;;5113301;28;20035;-61
2022/02/22 12:54:03;;;;;;;30.25;8.30;;;;;;;;;;5113088;28;20028;-63
2022/02/22 12:56:35;;;;;;;28.60;7.57;;;;;;;;;;5072790;28;20404;-63
2022/02/22 12:59:02;;;;;;;26.92;6.95;;;;;;;;;;5071868;28;20083;-63
2022/02/22 13:01:34;;;;;;;29.73;10.27;;;7.60;99.90;;;;;;5072832;28;20025;-62
2022/02/22 13:04:01;;;;;;;26.20;9.75;;;7.00;99.90;;;;;;5082736;28;20031;-63
2022/02/22 13:06:27;;;;;;;26.50;16.25;;;7.00;99.90;;;;;;5094837;28;20020;-63
2022/02/22 13:08:54;;;;;;;31.17;17.15;;;6.90;99.90;;;;;;5094068;28;20452;-64
2022/02/22 13:11:30;;;;;;;33.25;18.23;;;6.80;99.90;;;;;;5094760;28;20087;-63
2022/02/22 13:13:56;;;;;;;35.88;18.35;;;6.80;99.90;;;;;;5094735;28;20487;-61
2022/02/22 13:16:21;;;;;;;33.17;19.05;;;6.80;99.90;;;;;;5113031;28;20090;-62
2022/02/22 13:18:52;;;;;;;39.33;20.33;;;6.90;99.90;;;;;;5112521;28;20027;-62
2022/02/22 13:21:18;;;;;;;31.05;19.55;;;6.80;99.90;;;;;;5093906;28;20019;-64
2022/02/22 13:23:44;;;;;;;30.00;19.17;;;6.80;99.90;;;;;;5113339;28;20069;-62
2022/02/22 13:26:10;;;;;;;31.10;20.00;;;6.80;99.90;;;;;;5112735;28;20024;-62
2022/02/22 13:28:39;;;;;;;29.85;20.27;;;6.70;99.90;;;;;;5094221;28;20498;-61
2022/02/22 13:31:16;;;;;;;;;;;6.70;99.90;;;;;;5093530;28;20100;-62
2022/02/22 13:33:43;;;;;;;35.47;20.95;;;6.70;99.90;;;;;;5112826;28;19904;-59
2022/02/22 13:36:13;;;;;;;31.23;19.48;;;6.70;99.90;;;;;;5112759;28;20030;-62
2022/02/22 13:38:39;;;;;;;27.45;18.42;;;6.70;99.90;;;;;;5112931;28;20479;-60
2022/02/22 13:41:13;;;;;;;31.17;15.73;;;6.70;99.90;;;;;;5112931;28;20024;-62
2022/02/22 13:43:39;;;;;;;33.30;15.43;;;6.70;99.90;;;;;;5113216;28;20016;-61
2022/02/22 13:46:06;;;;;;;25.15;13.50;;;6.70;99.90;;;;;;5112934;28;20037;-61
2022/02/22 13:48:32;;;;;;;37.55;14.93;;;6.70;99.90;;;;;;5114366;28;20044;-65
2022/02/22 13:51:06;;;;;;;24.70;12.52;;;6.70;99.90;;;;;;5096175;28;20046;-64